ADDS METAR Data INFO
IDs: Format: Raw Decoded Include TAF

Data at: 1408 UTC 24 Feb 2018

KOEB 241355Z AUTO 09007KT 10SM BKN014 OVC090 02/00 A3019 RMK AO2 T00200004
KOEB 241335Z AUTO 09008KT 7SM BKN014 OVC090 02/01 A3019 RMK AO2 T00200005
KOEB 241315Z AUTO 08006KT 10SM OVC014 02/01 A3018 RMK AO2 T00180007
KOEB 241255Z AUTO 08007KT 10SM OVC014 02/01 A3018 RMK AO2 T00170008
KOEB 241235Z AUTO 07006KT 10SM OVC014 02/01 A3018 RMK AO2 T00170007
KOEB 241215Z AUTO 07006KT 10SM OVC014 02/01 A3018 RMK AO2 T00170007
KOEB 241155Z AUTO 05007KT 10SM OVC014 02/01 A3020 RMK AO2 T00170007 10023 20017
KOEB 241135Z AUTO 05005KT 10SM OVC014 02/01 A3021 RMK AO2 T00180006
KOEB 241115Z AUTO 04005KT 10SM OVC014 02/01 A3021 RMK AO2 T00190010
KOEB 241055Z AUTO 04005KT 10SM OVC014 02/01 A3021 RMK AO2 T00200011
KOEB 241035Z AUTO 05003KT 10SM OVC014 02/01 A3021 RMK AO2 T00200009
KOEB 241015Z AUTO 00000KT 10SM OVC014 02/01 A3021 RMK AO2 T00200009
KOEB 240955Z AUTO 06005KT 10SM OVC014 02/01 A3022 RMK AO2 T00200010
KOEB 240935Z AUTO 06004KT 10SM OVC014 02/01 A3022 RMK AO2 T00200010
KOEB 240915Z AUTO 04005KT 10SM OVC014 02/01 A3021 RMK AO2 T00200009
KOEB 240855Z AUTO 03005KT 10SM OVC012 02/01 A3022 RMK AO2 T00200010
KOEB 240835Z AUTO 05003KT 10SM OVC012 02/01 A3022 RMK AO2 T00200009
KOEB 240815Z AUTO 01003KT 10SM OVC012 02/01 A3021 RMK AO2 T00200009
KOEB 240755Z AUTO 36006KT 10SM OVC012 02/01 A3021 RMK AO2 T00200009
KOEB 240735Z AUTO 01007KT 10SM OVC012 02/01 A3022 RMK AO2 T00210014
KOEB 240715Z AUTO 35004KT 10SM OVC012 02/02 A3023 RMK AO2 T00210015
KOEB 240655Z AUTO 35005KT 10SM OVC012 02/02 A3022 RMK AO2 T00210015
KOEB 240635Z AUTO 35005KT 10SM OVC012 02/02 A3024 RMK AO2 T00220015
KOEB 240615Z AUTO 35007KT 10SM OVC010 02/02 A3024 RMK AO2 T00220019
KOEB 240555Z AUTO 34006KT 10SM OVC008 02/02 A3025 RMK AO2 T00230021 10050 20023 400780012
KOEB 240535Z AUTO 31006KT 10SM OVC008 03/03 A3025 RMK AO2 T00260025
KOEB 240515Z AUTO 30004KT 10SM OVC008 03/03 A3024 RMK AO2 T00260025
KOEB 240455Z AUTO 30006KT 10SM OVC008 03/03 A3024 RMK AO2 T00280025
KOEB 240435Z AUTO 30007KT 10SM OVC008 03/03 A3023 RMK AO2 T00280027
KOEB 240415Z AUTO 29006KT 10SM OVC008 03/03 A3022 RMK AO2 T00290026
KOEB 240355Z AUTO 30009KT 10SM OVC008 03/03 A3023 RMK AO2 T00300030
KOEB 240335Z AUTO 31008KT 10SM OVC008 03/03 A3023 RMK AO2 T00330033
KOEB 240315Z AUTO 29006KT 10SM OVC010 04/03 A3023 RMK AO2 T00350033
KOEB 240256Z AUTO 29009KT 10SM OVC010 04/03 A3023 RMK AO2 T00350031
KOEB 240235Z AUTO 29006KT 10SM OVC010 04/03 A3022 RMK AO2 T00370030
KOEB 240215Z AUTO 29009KT 10SM OVC010 04/03 A3023 RMK AO2 T00380032
KOEB 240155Z AUTO 29009G14KT 7SM OVC008 04/04 A3022 RMK AO2 T00400039
KOEB 240135Z AUTO 29007KT 5SM BR OVC006 04/04 A3022 RMK AO2 T00400040
KOEB 240115Z AUTO 29007KT 7SM OVC006 04/04 A3022 RMK AO2 T00410041
KOEB 240055Z AUTO 29009KT 5SM BR OVC006 05/05 A3022 RMK AO2 T00450045
KOEB 240035Z AUTO 29008KT 7SM OVC006 05/05 A3021 RMK AO2 T00460046
KOEB 240015Z AUTO 29007KT 7SM OVC006 05/05 A3021 RMK AO2 T00470047
KOEB 232355Z AUTO 28010KT 7SM OVC006 05/05 A3021 RMK AO2 T00500050 10078 20050
KOEB 232335Z AUTO 28008G14KT 7SM OVC006 05/05 A3020 RMK AO2 T00520052
KOEB 232315Z AUTO 29012G15KT 4SM BR OVC004 06/06 A3019 RMK AO2 T00550055
KOEB 232255Z AUTO 29011G15KT 3SM BR OVC004 06/06 A3018 RMK AO2 T00570057
KOEB 232235Z AUTO 29007KT 2 1/2SM BR OVC002 06/06 A3018 RMK AO2 T00600060
KOEB 232215Z AUTO 29008KT 1SM BR OVC002 06/06 A3016 RMK AO2 T00630063
KOEB 232155Z AUTO 28007KT 3/4SM BR OVC002 07/07 A3016 RMK AO2 T00650065
KOEB 232135Z AUTO 28009KT 1SM BR OVC002 07/07 A3016 RMK AO2 T00670067
KOEB 232115Z AUTO 28008KT 1 1/2SM BR OVC004 07/07 A3016 RMK AO2 T00690069
KOEB 232055Z AUTO 26011KT 2 1/2SM BR OVC004 07/07 A3014 RMK AO2 T00710071
KOEB 232035Z AUTO 27014G20KT 4SM BR OVC006 07/07 A3014 RMK AO2 T00710071
KOEB 232015Z AUTO 26014G19KT 7SM OVC006 07/07 A3014 RMK AO2 T00730073
KOEB 231956Z AUTO 26009G17KT 5SM BR OVC004 07/07 A3014 RMK AO2 T00720072
KOEB 231935Z AUTO 27014G20KT 7SM OVC006 07/07 A3013 RMK AO2 T00730073
KOEB 231915Z AUTO 28013G16KT 7SM OVC006 08/08 A3013 RMK AO2 T00750075
KOEB 231855Z AUTO 26012G21KT 10SM OVC006 08/08 A3012 RMK AO2 T00770077
KOEB 231835Z AUTO 26014G21KT 10SM OVC006 08/08 A3012 RMK AO2 T00780078
KOEB 231815Z AUTO 26011G18KT 10SM OVC006 08/08 A3012 RMK AO2 T00780078
KOEB 231755Z AUTO 25012G18KT 5SM BR OVC004 08/08 A3011 RMK AO2 T00780078 10078 20021
KOEB 231735Z AUTO 25013G17KT 7SM OVC004 08/08 A3011 RMK AO2 T00770077
KOEB 231715Z AUTO 25009KT 10SM OVC004 07/07 A3011 RMK AO2 T00740074
KOEB 231655Z AUTO 24009KT 10SM OVC004 07/07 A3011 RMK AO2 T00700070
KOEB 231635Z AUTO 23008KT 10SM OVC004 07/07 A3010 RMK AO2 T00670067
KOEB 231615Z AUTO 20004KT 10SM OVC004 06/06 A3009 RMK AO2 T00610061
KOEB 231555Z AUTO 20004KT 10SM OVC004 06/06 A3009 RMK AO2 T00550055
KOEB 231535Z AUTO 00000KT 10SM BKN004 OVC011 05/05 A3010 RMK AO2 T00470047
KOEB 231515Z AUTO 18005KT 7SM OVC004 04/04 A3010 RMK AO2 T00410041
KOEB 231455Z AUTO 16004KT 3SM BR OVC004 04/04 A3010 RMK AO2 T00370037
KOEB 231435Z AUTO 16006KT 10SM OVC004 04/04 A3011 RMK AO2 T00350035
KOEB 231415Z AUTO 00000KT 4SM DZ OVC004 03/03 A3012 RMK AO2 T00310031
KOEB 231355Z AUTO 15005KT 1 3/4SM RA OVC004 03/03 A3012 RMK AO2 T00310031
KOEB 231335Z AUTO 20003KT 1SM UP OVC004 03/03 A3012 RMK AO2 T00300030
KOEB 231315Z AUTO 15008KT 2 1/2SM BR OVC002 03/03 A3011 RMK AO2 T00280028
KOEB 231255Z AUTO 13007G14KT 3SM BR OVC002 03/03 A3011 RMK AO2 T00260026
KOEB 231235Z AUTO 13008KT 2SM -SN OVC002 02/02 A3012 RMK AO2 T00230023
KOEB 231215Z AUTO 13009KT 2 1/2SM BR OVC002 02/02 A3013 RMK AO2 T00220022
KOEB 231155Z AUTO 14006KT 4SM BR OVC002 02/02 A3015 RMK AO2 T00200020 10020 20012
KOEB 231135Z AUTO 13008KT 7SM OVC002 02/02 A3016 RMK AO2 T00200020
KOEB 231115Z AUTO 14008KT 4SM BR OVC002 02/02 A3018 RMK AO2 T00190019
KOEB 231055Z AUTO 13009KT 2SM BR OVC002 02/02 A3018 RMK AO2 T00180018
KOEB 231035Z AUTO 12009KT 3SM BR OVC004 02/02 A3019 RMK AO2 T00170017
KOEB 231015Z AUTO 12008KT 7SM OVC004 02/02 A3020 RMK AO2 T00170017
KOEB 230955Z AUTO 14008KT 7SM OVC004 02/02 A3022 RMK AO2 T00170017
KOEB 230935Z AUTO 13008KT 7SM OVC006 02/02 A3021 RMK AO2 T00170017
KOEB 230915Z AUTO 12010KT 10SM OVC006 02/02 A3023 RMK AO2 T00160016
KOEB 230855Z AUTO 12009KT 10SM OVC006 02/02 A3025 RMK AO2 T00150015
KOEB 230835Z AUTO 12009KT 10SM OVC004 02/02 A3025 RMK AO2 T00150015
KOEB 230815Z AUTO 12007KT 7SM OVC004 01/01 A3028 RMK AO2 T00140014
KOEB 230755Z AUTO 11010G15KT 5SM BR OVC004 01/01 A3029 RMK AO2 T00130013
KOEB 230735Z AUTO 12009KT 2 1/2SM BR OVC004 01/01 A3032 RMK AO2 T00120012
KOEB 230715Z AUTO 12007KT 2SM BR OVC004 01/01 A3034 RMK AO2 T00120012
KOEB 230655Z AUTO 11008KT 2 1/2SM BR OVC006 01/01 A3036 RMK AO2 T00130013
KOEB 230635Z AUTO 10007KT 4SM BR OVC008 01/01 A3034 RMK AO2 T00130013
KOEB 230615Z AUTO 07007KT 10SM OVC008 02/01 A3037 RMK AO2 T00150012
KOEB 230555Z AUTO 10008G15KT 10SM OVC008 01/01 A3038 RMK AO2 T00140012 10032 20012 400520000
KOEB 230535Z AUTO 09011G16KT 10SM OVC008 01/01 A3036 RMK AO2 T00130011
KOEB 230515Z AUTO 10011G17KT 10SM OVC008 01/01 A3037 RMK AO2 T00130010
KOEB 230455Z AUTO 11013G18KT 10SM OVC010 02/01 A3036 RMK AO2 T00150005
KOEB 230435Z AUTO 10013G17KT 10SM OVC012 02/00 A3038 RMK AO2 T00160001
KOEB 230415Z AUTO 10015G21KT 10SM OVC014 02/00 A3039 RMK AO2 T00190000
KOEB 230355Z AUTO 10011G15KT 10SM OVC014 02/00 A3042 RMK AO2 T00200000
KOEB 230335Z AUTO 11011G16KT 10SM OVC014 02/00 A3043 RMK AO2 T00210000
KOEB 230315Z AUTO 11012G19KT 10SM OVC014 02/00 A3044 RMK AO2 T00230001
KOEB 230255Z AUTO 11009G14KT 10SM OVC014 03/00 A3044 RMK AO2 T00250004
KOEB 230235Z AUTO 11009KT 10SM OVC014 03/01 A3045 RMK AO2 T00250005
KOEB 230215Z AUTO 11007KT 10SM OVC014 03/01 A3046 RMK AO2 T00260008